sensor_id;sensor_type;location;lat;lon;timestamp;pressure;altitude;pressure_sealevel;temperature;humidity
34506;BME280;20748;42.632;23.198;2023-02-23T00:01:41;91869.22;;;4.18;78.68
34506;BME280;20748;42.632;23.198;2023-02-23T00:04:13;91868.19;;;4.13;78.67
34506;BME280;20748;42.632;23.198;2023-02-23T00:06:45;91875.69;;;4.15;77.90
34506;BME280;20748;42.632;23.198;2023-02-23T00:09:18;91874.69;;;4.11;78.10
34506;BME280;20748;42.632;23.198;2023-02-23T00:11:55;91876.72;;;4.09;77.82
34506;BME280;20748;42.632;23.198;2023-02-23T00:14:28;91879.59;;;3.97;78.87
34506;BME280;20748;42.632;23.198;2023-02-23T00:17:01;91868.75;;;4.00;79.47
34506;BME280;20748;42.632;23.198;2023-02-23T00:19:34;91867.97;;;3.94;79.29
34506;BME280;20748;42.632;23.198;2023-02-23T00:22:08;91869.28;;;3.97;79.25
34506;BME280;20748;42.632;23.198;2023-02-23T00:24:40;91867.44;;;3.92;79.34
34506;BME280;20748;42.632;23.198;2023-02-23T00:27:13;91873.41;;;3.93;80.14
34506;BME280;20748;42.632;23.198;2023-02-23T00:29:50;91870.03;;;3.92;80.61
34506;BME280;20748;42.632;23.198;2023-02-23T00:32:23;91873.16;;;3.89;79.94
34506;BME280;20748;42.632;23.198;2023-02-23T00:34:55;91864.88;;;3.87;79.68
34506;BME280;20748;42.632;23.198;2023-02-23T00:37:29;91865.66;;;3.82;80.11
34506;BME280;20748;42.632;23.198;2023-02-23T00:40:01;91866.44;;;3.67;81.21
34506;BME280;20748;42.632;23.198;2023-02-23T00:42:37;91861.81;;;3.64;81.64
34506;BME280;20748;42.632;23.198;2023-02-23T00:45:11;91864.63;;;3.68;81.95
34506;BME280;20748;42.632;23.198;2023-02-23T00:47:43;91859.19;;;3.69;82.18
34506;BME280;20748;42.632;23.198;2023-02-23T00:50:18;91856.91;;;3.68;82.24
34506;BME280;20748;42.632;23.198;2023-02-23T00:52:50;91852.25;;;3.70;81.94
34506;BME280;20748;42.632;23.198;2023-02-23T00:55:23;91852.50;;;3.73;82.15
34506;BME280;20748;42.632;23.198;2023-02-23T00:57:56;91855.06;;;3.68;81.86
34506;BME280;20748;42.632;23.198;2023-02-23T01:00:29;91850.94;;;3.67;82.15
34506;BME280;20748;42.632;23.198;2023-02-23T01:03:02;91856.13;;;3.67;82.33
34506;BME280;20748;42.632;23.198;2023-02-23T01:05:34;91850.94;;;3.67;82.35
34506;BME280;20748;42.632;23.198;2023-02-23T01:08:07;91854.81;;;3.70;82.45
34506;BME280;20748;42.632;23.198;2023-02-23T01:10:41;91845.53;;;3.63;82.10
34506;BME280;20748;42.632;23.198;2023-02-23T01:13:17;91851.97;;;3.61;82.57
34506;BME280;20748;42.632;23.198;2023-02-23T01:15:50;91850.94;;;3.57;82.68
34506;BME280;20748;42.632;23.198;2023-02-23T01:18:23;91839.09;;;3.56;82.69
34506;BME280;20748;42.632;23.198;2023-02-23T01:20:55;91847.59;;;3.56;83.39
34506;BME280;20748;42.632;23.198;2023-02-23T01:23:27;91840.13;;;3.55;83.30
34506;BME280;20748;42.632;23.198;2023-02-23T01:26:00;91842.19;;;3.53;83.45
34506;BME280;20748;42.632;23.198;2023-02-23T01:28:33;91839.06;;;3.45;82.95
34506;BME280;20748;42.632;23.198;2023-02-23T01:31:07;91842.19;;;3.42;82.89
34506;BME280;20748;42.632;23.198;2023-02-23T01:33:41;91846.81;;;3.45;82.94
34506;BME280;20748;42.632;23.198;2023-02-23T01:36:13;91841.41;;;3.42;83.30
34506;BME280;20748;42.632;23.198;2023-02-23T01:38:45;91840.63;;;3.46;83.40
34506;BME280;20748;42.632;23.198;2023-02-23T01:41:19;91846.31;;;3.48;83.44
34506;BME280;20748;42.632;23.198;2023-02-23T01:43:57;91843.97;;;3.42;84.15
34506;BME280;20748;42.632;23.198;2023-02-23T01:46:31;91831.63;;;3.44;84.10
34506;BME280;20748;42.632;23.198;2023-02-23T01:49:06;91834.19;;;3.44;84.78
34506;BME280;20748;42.632;23.198;2023-02-23T01:51:42;91841.66;;;3.45;85.07
34506;BME280;20748;42.632;23.198;2023-02-23T01:54:21;91839.84;;;3.41;85.23
34506;BME280;20748;42.632;23.198;2023-02-23T01:56:58;91833.16;;;3.45;85.09
34506;BME280;20748;42.632;23.198;2023-02-23T01:59:37;91833.16;;;3.40;85.27
34506;BME280;20748;42.632;23.198;2023-02-23T02:02:11;91838.56;;;3.33;85.04
34506;BME280;20748;42.632;23.198;2023-02-23T02:04:44;91829.78;;;3.24;85.39
34506;BME280;20748;42.632;23.198;2023-02-23T02:07:20;91837.00;;;3.21;85.02
34506;BME280;20748;42.632;23.198;2023-02-23T02:09:55;91818.41;;;3.14;85.26
34506;BME280;20748;42.632;23.198;2023-02-23T02:12:44;91829.78;;;3.24;85.15
34506;BME280;20748;42.632;23.198;2023-02-23T02:15:18;91819.72;;;3.17;85.39
34506;BME280;20748;42.632;23.198;2023-02-23T02:17:59;91835.69;;;3.24;85.90
34506;BME280;20748;42.632;23.198;2023-02-23T02:27:20;91836.47;;;3.19;86.42
34506;BME280;20748;42.632;23.198;2023-02-23T02:30:24;91837.50;;;3.18;86.33
34506;BME280;20748;42.632;23.198;2023-02-23T02:36:19;91833.41;;;3.17;86.82
34506;BME280;20748;42.632;23.198;2023-02-23T02:39:02;91836.47;;;3.14;86.49
34506;BME280;20748;42.632;23.198;2023-02-23T02:41:47;91825.13;;;3.00;87.12
34506;BME280;20748;42.632;23.198;2023-02-23T02:44:29;91824.31;;;2.99;87.02
34506;BME280;20748;42.632;23.198;2023-02-23T02:47:07;91829.72;;;2.98;87.30
34506;BME280;20748;42.632;23.198;2023-02-23T02:49:45;91829.47;;;2.94;87.19
34506;BME280;20748;42.632;23.198;2023-02-23T02:52:25;91819.16;;;2.94;86.89
34506;BME280;20748;42.632;23.198;2023-02-23T02:55:04;91822.78;;;2.93;87.24
34506;BME280;20748;42.632;23.198;2023-02-23T02:57:42;91817.63;;;2.93;87.25
34506;BME280;20748;42.632;23.198;2023-02-23T03:00:19;91825.84;;;2.95;87.54
34506;BME280;20748;42.632;23.198;2023-02-23T03:03:27;91820.44;;;2.91;86.73
34506;BME280;20748;42.632;23.198;2023-02-23T03:06:20;91818.91;;;2.90;87.22
34506;BME280;20748;42.632;23.198;2023-02-23T03:09:23;91822.00;;;2.87;87.34
34506;BME280;20748;42.632;23.198;2023-02-23T03:12:25;91816.31;;;2.85;86.76
34506;BME280;20748;42.632;23.198;2023-02-23T03:15:28;91817.84;;;2.86;87.64
34506;BME280;20748;42.632;23.198;2023-02-23T03:18:35;91816.81;;;2.82;88.19
34506;BME280;20748;42.632;23.198;2023-02-23T03:21:35;91822.22;;;2.75;88.07
34506;BME280;20748;42.632;23.198;2023-02-23T03:24:34;91822.19;;;2.70;88.58
34506;BME280;20748;42.632;23.198;2023-02-23T03:27:41;91824.50;;;2.66;88.91
34506;BME280;20748;42.632;23.198;2023-02-23T03:30:42;91831.75;;;2.70;89.07
34506;BME280;20748;42.632;23.198;2023-02-23T03:33:41;91837.91;;;2.68;88.86
34506;BME280;20748;42.632;23.198;2023-02-23T03:36:36;91833.75;;;2.62;89.29
34506;BME280;20748;42.632;23.198;2023-02-23T03:39:33;91835.06;;;2.65;89.34
34506;BME280;20748;42.632;23.198;2023-02-23T03:42:32;91838.91;;;2.62;89.44
34506;BME280;20748;42.632;23.198;2023-02-23T03:45:25;91831.75;;;2.70;90.20
34506;BME280;20748;42.632;23.198;2023-02-23T03:48:19;91844.09;;;2.73;90.23
34506;BME280;20748;42.632;23.198;2023-02-23T03:51:11;91841.50;;;2.67;90.54
34506;BME280;20748;42.632;23.198;2023-02-23T03:54:07;91844.34;;;2.61;90.88
34506;BME280;20748;42.632;23.198;2023-02-23T03:57:03;91847.66;;;2.61;91.28
34506;BME280;20748;42.632;23.198;2023-02-23T03:59:57;91847.41;;;2.58;91.67
34506;BME280;20748;42.632;23.198;2023-02-23T04:02:50;91839.88;;;2.51;91.65
34506;BME280;20748;42.632;23.198;2023-02-23T04:05:44;91846.88;;;2.55;91.69
34506;BME280;20748;42.632;23.198;2023-02-23T04:08:35;91846.09;;;2.55;91.59
34506;BME280;20748;42.632;23.198;2023-02-23T04:11:30;91836.81;;;2.49;91.35
34506;BME280;20748;42.632;23.198;2023-02-23T04:14:27;91845.34;;;2.54;91.66
34506;BME280;20748;42.632;23.198;2023-02-23T04:17:03;91850.97;;;2.51;91.61
34506;BME280;20748;42.632;23.198;2023-02-23T04:19:35;91843.00;;;2.53;91.79
34506;BME280;20748;42.632;23.198;2023-02-23T04:22:08;91850.97;;;2.51;91.88
34506;BME280;20748;42.632;23.198;2023-02-23T04:24:40;91849.19;;;2.52;91.31
34506;BME280;20748;42.632;23.198;2023-02-23T04:27:13;91844.75;;;2.42;92.70
34506;BME280;20748;42.632;23.198;2023-02-23T04:29:45;91835.22;;;2.42;92.90
34506;BME280;20748;42.632;23.198;2023-02-23T04:32:19;91846.59;;;2.47;92.92
34506;BME280;20748;42.632;23.198;2023-02-23T04:34:51;91843.19;;;2.41;92.64
34506;BME280;20748;42.632;23.198;2023-02-23T04:37:24;91846.34;;;2.48;93.13
34506;BME280;20748;42.632;23.198;2023-02-23T04:39:56;91850.47;;;2.49;92.75
34506;BME280;20748;42.632;23.198;2023-02-23T04:42:28;91842.22;;;2.52;92.43
34506;BME280;20748;42.632;23.198;2023-02-23T04:45:01;91846.59;;;2.47;93.60
34506;BME280;20748;42.632;23.198;2023-02-23T04:47:34;91849.91;;;2.47;93.93
34506;BME280;20748;42.632;23.198;2023-02-23T04:50:07;91843.22;;;2.46;93.65
34506;BME280;20748;42.632;23.198;2023-02-23T04:52:41;91844.25;;;2.45;93.14
34506;BME280;20748;42.632;23.198;2023-02-23T04:55:17;91841.16;;;2.38;93.28
34506;BME280;20748;42.632;23.198;2023-02-23T04:57:56;91846.31;;;2.43;92.78
34506;BME280;20748;42.632;23.198;2023-02-23T05:00:29;91841.41;;;2.41;93.76
34506;BME280;20748;42.632;23.198;2023-02-23T05:03:02;91839.63;;;2.47;93.98
34506;BME280;20748;42.632;23.198;2023-02-23T05:05:35;91841.94;;;2.44;93.35
34506;BME280;20748;42.632;23.198;2023-02-23T05:08:08;91832.38;;;2.34;93.38
34506;BME280;20748;42.632;23.198;2023-02-23T05:10:40;91841.91;;;2.38;93.73
34506;BME280;20748;42.632;23.198;2023-02-23T05:13:12;91844.50;;;2.44;93.83
34506;BME280;20748;42.632;23.198;2023-02-23T05:15:45;91839.59;;;2.42;93.75
34506;BME280;20748;42.632;23.198;2023-02-23T05:18:18;91839.31;;;2.38;94.19
34506;BME280;20748;42.632;23.198;2023-02-23T05:20:51;91846.28;;;2.38;94.02
34506;BME280;20748;42.632;23.198;2023-02-23T05:23:24;91843.94;;;2.31;93.63
34506;BME280;20748;42.632;23.198;2023-02-23T05:25:59;91851.44;;;2.38;93.25
34506;BME280;20748;42.632;23.198;2023-02-23T05:28:32;91849.59;;;2.33;93.71
34506;BME280;20748;42.632;23.198;2023-02-23T05:31:05;91846.75;;;2.30;94.27
34506;BME280;20748;42.632;23.198;2023-02-23T05:33:39;91854.47;;;2.30;94.37
34506;BME280;20748;42.632;23.198;2023-02-23T05:36:14;91859.59;;;2.24;94.84
34506;BME280;20748;42.632;23.198;2023-02-23T05:38:48;91861.44;;;2.29;94.92
34506;BME280;20748;42.632;23.198;2023-02-23T05:41:21;91860.63;;;2.23;94.88
34506;BME280;20748;42.632;23.198;2023-02-23T05:43:54;91864.47;;;2.21;95.04
34506;BME280;20748;42.632;23.198;2023-02-23T05:46:27;91873.25;;;2.25;94.93
34506;BME280;20748;42.632;23.198;2023-02-23T05:49:01;91881.72;;;2.20;94.51
34506;BME280;20748;42.632;23.198;2023-02-23T05:51:34;91877.84;;;2.18;94.72
34506;BME280;20748;42.632;23.198;2023-02-23T05:54:06;91889.94;;;2.17;94.85
34506;BME280;20748;42.632;23.198;2023-02-23T05:56:39;91891.75;;;2.17;95.45
34506;BME280;20748;42.632;23.198;2023-02-23T05:59:11;91886.84;;;2.15;96.14
34506;BME280;20748;42.632;23.198;2023-02-23T06:01:44;91895.31;;;2.15;96.65
34506;BME280;20748;42.632;23.198;2023-02-23T06:04:17;91895.31;;;2.15;97.06
34506;BME280;20748;42.632;23.198;2023-02-23T06:06:49;91900.00;;;2.19;97.17
34506;BME280;20748;42.632;23.198;2023-02-23T06:09:22;91900.03;;;2.24;97.06
34506;BME280;20748;42.632;23.198;2023-02-23T06:11:54;91896.66;;;2.23;97.66
34506;BME280;20748;42.632;23.198;2023-02-23T06:14:26;91901.31;;;2.21;98.18
34506;BME280;20748;42.632;23.198;2023-02-23T06:16:59;91902.56;;;2.19;98.77
34506;BME280;20748;42.632;23.198;2023-02-23T06:19:32;91904.16;;;2.25;98.61
34506;BME280;20748;42.632;23.198;2023-02-23T06:22:04;91908.53;;;2.30;98.77
34506;BME280;20748;42.632;23.198;2023-02-23T06:24:37;91916.53;;;2.33;99.36
34506;BME280;20748;42.632;23.198;2023-02-23T06:27:09;91919.94;;;2.39;99.02
34506;BME280;20748;42.632;23.198;2023-02-23T06:29:42;91912.72;;;2.41;100.00
34506;BME280;20748;42.632;23.198;2023-02-23T06:32:15;91917.13;;;2.40;100.00
34506;BME280;20748;42.632;23.198;2023-02-23T06:34:52;91916.91;;;2.52;100.00
34506;BME280;20748;42.632;23.198;2023-02-23T06:37:25;91925.72;;;2.62;100.00
34506;BME280;20748;42.632;23.198;2023-02-23T06:39:57;91913.16;;;2.71;100.00
34506;BME280;20748;42.632;23.198;2023-02-23T06:42:29;91920.63;;;2.72;100.00
34506;BME280;20748;42.632;23.198;2023-02-23T06:45:02;91918.84;;;2.78;100.00
34506;BME280;20748;42.632;23.198;2023-02-23T06:47:34;91923.25;;;2.88;100.00
34506;BME280;20748;42.632;23.198;2023-02-23T06:50:09;91920.47;;;3.00;100.00
34506;BME280;20748;42.632;23.198;2023-02-23T06:52:41;91920.78;;;3.14;100.00
34506;BME280;20748;42.632;23.198;2023-02-23T06:55:14;91914.88;;;3.24;100.00
34506;BME280;20748;42.632;23.198;2023-02-23T06:57:48;91915.41;;;3.36;100.00
34506;BME280;20748;42.632;23.198;2023-02-23T07:00:21;91917.25;;;3.51;100.00
34506;BME280;20748;42.632;23.198;2023-02-23T07:02:53;91912.38;;;3.65;100.00
34506;BME280;20748;42.632;23.198;2023-02-23T07:05:28;91919.09;;;3.82;100.00
34506;BME280;20748;42.632;23.198;2023-02-23T07:08:01;91921.41;;;3.99;100.00
34506;BME280;20748;42.632;23.198;2023-02-23T07:10:33;91909.25;;;4.20;100.00
34506;BME280;20748;42.632;23.198;2023-02-23T07:13:06;91915.41;;;4.40;100.00
34506;BME280;20748;42.632;23.198;2023-02-23T07:15:39;91912.81;;;4.61;100.00
34506;BME280;20748;42.632;23.198;2023-02-23T07:18:11;91913.25;;;4.83;99.81
34506;BME280;20748;42.632;23.198;2023-02-23T07:20:44;91915.75;;;5.04;99.22
34506;BME280;20748;42.632;23.198;2023-02-23T07:23:17;91914.88;;;5.24;95.88
34506;BME280;20748;42.632;23.198;2023-02-23T07:25:50;91914.25;;;5.48;93.53
34506;BME280;20748;42.632;23.198;2023-02-23T07:28:23;91914.63;;;5.71;89.66
34506;BME280;20748;42.632;23.198;2023-02-23T07:30:56;91913.47;;;5.88;89.28
34506;BME280;20748;42.632;23.198;2023-02-23T07:33:29;91918.22;;;6.15;83.84
34506;BME280;20748;42.632;23.198;2023-02-23T07:36:04;91910.84;;;6.28;84.05
34506;BME280;20748;42.632;23.198;2023-02-23T07:38:36;91906.81;;;6.46;83.07
34506;BME280;20748;42.632;23.198;2023-02-23T07:41:09;91907.16;;;6.64;81.69
34506;BME280;20748;42.632;23.198;2023-02-23T07:43:41;91902.53;;;6.85;80.21
34506;BME280;20748;42.632;23.198;2023-02-23T07:46:14;91908.03;;;7.03;78.10
34506;BME280;20748;42.632;23.198;2023-02-23T07:48:48;91909.47;;;7.33;77.07
34506;BME280;20748;42.632;23.198;2023-02-23T07:51:21;91904.84;;;7.49;75.73
34506;BME280;20748;42.632;23.198;2023-02-23T07:53:53;91900.34;;;7.74;74.79
34506;BME280;20748;42.632;23.198;2023-02-23T07:56:25;91899.28;;;7.95;72.59
34506;BME280;20748;42.632;23.198;2023-02-23T07:58:58;91903.84;;;8.17;71.66
34506;BME280;20748;42.632;23.198;2023-02-23T08:01:31;91907.88;;;8.42;70.18
34506;BME280;20748;42.632;23.198;2023-02-23T08:04:04;91904.38;;;8.66;69.37
34506;BME280;20748;42.632;23.198;2023-02-23T08:06:37;91907.09;;;8.89;69.18
34506;BME280;20748;42.632;23.198;2023-02-23T08:09:10;91905.44;;;9.07;68.83
34506;BME280;20748;42.632;23.198;2023-02-23T08:11:43;91910.66;;;9.07;66.84
34506;BME280;20748;42.632;23.198;2023-02-23T08:14:15;91908.72;;;8.99;66.82
34506;BME280;20748;42.632;23.198;2023-02-23T08:16:48;91905.91;;;9.09;65.88
34506;BME280;20748;42.632;23.198;2023-02-23T08:19:23;91909.69;;;9.17;66.56
34506;BME280;20748;42.632;23.198;2023-02-23T08:21:55;91909.44;;;9.42;65.80
34506;BME280;20748;42.632;23.198;2023-02-23T08:24:28;91908.38;;;9.79;65.34
34506;BME280;20748;42.632;23.198;2023-02-23T08:27:02;91914.38;;;10.03;64.16
34506;BME280;20748;42.632;23.198;2023-02-23T08:29:34;91912.31;;;10.14;63.15
34506;BME280;20748;42.632;23.198;2023-02-23T08:32:07;91910.41;;;10.28;63.16
34506;BME280;20748;42.632;23.198;2023-02-23T08:34:41;91906.88;;;10.47;62.82
34506;BME280;20748;42.632;23.198;2023-02-23T08:37:14;91913.84;;;10.60;62.59
34506;BME280;20748;42.632;23.198;2023-02-23T08:39:47;91912.94;;;10.65;62.73
34506;BME280;20748;42.632;23.198;2023-02-23T08:42:19;91905.91;;;10.74;61.00
34506;BME280;20748;42.632;23.198;2023-02-23T08:44:51;91911.72;;;10.71;62.43
34506;BME280;20748;42.632;23.198;2023-02-23T08:47:24;91902.44;;;10.88;62.17
34506;BME280;20748;42.632;23.198;2023-02-23T08:49:56;91906.75;;;10.93;60.37
34506;BME280;20748;42.632;23.198;2023-02-23T08:52:29;91911.56;;;11.08;59.96
34506;BME280;20748;42.632;23.198;2023-02-23T08:55:01;91911.25;;;11.10;60.11
34506;BME280;20748;42.632;23.198;2023-02-23T08:57:34;91910.06;;;11.16;59.17
34506;BME280;20748;42.632;23.198;2023-02-23T09:00:08;91910.84;;;11.25;59.95
34506;BME280;20748;42.632;23.198;2023-02-23T09:02:45;91912.25;;;11.32;59.27
34506;BME280;20748;42.632;23.198;2023-02-23T09:05:18;91905.97;;;11.50;59.34
34506;BME280;20748;42.632;23.198;2023-02-23T09:07:51;91912.63;;;11.74;58.85
34506;BME280;20748;42.632;23.198;2023-02-23T09:10:24;91900.94;;;11.80;56.20
34506;BME280;20748;42.632;23.198;2023-02-23T09:12:59;91901.69;;;11.90;57.28
34506;BME280;20748;42.632;23.198;2023-02-23T09:15:32;91903.84;;;11.97;58.40
34506;BME280;20748;42.632;23.198;2023-02-23T09:18:05;91906.59;;;12.00;56.65
34506;BME280;20748;42.632;23.198;2023-02-23T09:20:40;91910.19;;;12.13;56.21
34506;BME280;20748;42.632;23.198;2023-02-23T09:23:13;91905.41;;;12.06;55.25
34506;BME280;20748;42.632;23.198;2023-02-23T09:25:45;91907.56;;;12.04;56.28
34506;BME280;20748;42.632;23.198;2023-02-23T09:28:18;91910.03;;;12.10;55.50
34506;BME280;20748;42.632;23.198;2023-02-23T09:30:51;91911.56;;;12.11;54.86
34506;BME280;20748;42.632;23.198;2023-02-23T09:33:23;91913.72;;;12.17;55.13
34506;BME280;20748;42.632;23.198;2023-02-23T09:35:56;91916.31;;;12.26;55.68
34506;BME280;20748;42.632;23.198;2023-02-23T09:38:29;91919.38;;;12.28;53.64
34506;BME280;20748;42.632;23.198;2023-02-23T09:41:03;91921.06;;;12.42;53.82
34506;BME280;20748;42.632;23.198;2023-02-23T09:43:43;91915.22;;;12.45;53.48
34506;BME280;20748;42.632;23.198;2023-02-23T09:46:26;91911.03;;;12.44;53.41
34506;BME280;20748;42.632;23.198;2023-02-23T09:49:07;91914.09;;;12.55;53.44
34506;BME280;20748;42.632;23.198;2023-02-23T09:51:47;91919.66;;;12.53;52.62
34506;BME280;20748;42.632;23.198;2023-02-23T09:54:21;91918.84;;;12.61;53.54
34506;BME280;20748;42.632;23.198;2023-02-23T09:56:55;91913.59;;;12.70;52.35
34506;BME280;20748;42.632;23.198;2023-02-23T09:59:29;91911.75;;;12.71;51.49
34506;BME280;20748;42.632;23.198;2023-02-23T10:02:05;91913.56;;;12.79;52.56
34506;BME280;20748;42.632;23.198;2023-02-23T10:04:45;91912.59;;;12.93;51.88
34506;BME280;20748;42.632;23.198;2023-02-23T10:07:22;91913.94;;;13.08;51.28
34506;BME280;20748;42.632;23.198;2023-02-23T10:10:10;91911.09;;;13.22;50.97
34506;BME280;20748;42.632;23.198;2023-02-23T10:12:52;91903.84;;;13.19;49.35
34506;BME280;20748;42.632;23.198;2023-02-23T10:15:33;91908.09;;;13.32;48.82
34506;BME280;20748;42.632;23.198;2023-02-23T10:18:16;91903.28;;;13.43;49.64
34506;BME280;20748;42.632;23.198;2023-02-23T10:20:57;91901.91;;;13.67;48.28
34506;BME280;20748;42.632;23.198;2023-02-23T10:23:35;91901.81;;;13.85;48.69
34506;BME280;20748;42.632;23.198;2023-02-23T10:26:16;91896.81;;;13.92;47.74
34506;BME280;20748;42.632;23.198;2023-02-23T10:28:49;91892.47;;;13.96;47.87
34506;BME280;20748;42.632;23.198;2023-02-23T10:31:28;91889.97;;;14.00;47.74
34506;BME280;20748;42.632;23.198;2023-02-23T10:34:09;91894.25;;;13.83;47.35
34506;BME280;20748;42.632;23.198;2023-02-23T10:36:46;91893.47;;;14.04;46.85
34506;BME280;20748;42.632;23.198;2023-02-23T10:39:21;91891.16;;;14.02;46.84
34506;BME280;20748;42.632;23.198;2023-02-23T10:41:55;91882.13;;;14.12;46.75
34506;BME280;20748;42.632;23.198;2023-02-23T10:44:29;91872.00;;;14.23;46.25
34506;BME280;20748;42.632;23.198;2023-02-23T10:47:05;91881.47;;;14.49;46.37
34506;BME280;20748;42.632;23.198;2023-02-23T10:49:42;91876.78;;;14.55;45.49
34506;BME280;20748;42.632;23.198;2023-02-23T10:52:19;91877.31;;;14.94;46.04
34506;BME280;20748;42.632;23.198;2023-02-23T10:54:53;91867.22;;;15.09;45.01
34506;BME280;20748;42.632;23.198;2023-02-23T10:57:28;91865.69;;;15.33;44.45
34506;BME280;20748;42.632;23.198;2023-02-23T11:00:21;91864.13;;;15.44;43.88
34506;BME280;20748;42.632;23.198;2023-02-23T11:02:59;91861.06;;;15.42;43.02
34506;BME280;20748;42.632;23.198;2023-02-23T11:05:35;91855.91;;;15.46;44.61
34506;BME280;20748;42.632;23.198;2023-02-23T11:08:19;91856.34;;;15.48;43.35
34506;BME280;20748;42.632;23.198;2023-02-23T11:10:59;91844.16;;;15.02;43.04
34506;BME280;20748;42.632;23.198;2023-02-23T11:13:38;91847.72;;;15.10;44.46
34506;BME280;20748;42.632;23.198;2023-02-23T11:16:12;91845.50;;;15.49;44.29
34506;BME280;20748;42.632;23.198;2023-02-23T11:18:50;91847.00;;;15.63;42.60
34506;BME280;20748;42.632;23.198;2023-02-23T11:21:27;91836.47;;;15.75;42.49
34506;BME280;20748;42.632;23.198;2023-02-23T11:24:15;91833.78;;;15.88;42.63
34506;BME280;20748;42.632;23.198;2023-02-23T11:26:51;91837.53;;;15.87;42.43
34506;BME280;20748;42.632;23.198;2023-02-23T11:29:29;91832.25;;;15.99;41.88
34506;BME280;20748;42.632;23.198;2023-02-23T11:32:08;91825.56;;;16.02;41.65
34506;BME280;20748;42.632;23.198;2023-02-23T11:34:45;91827.88;;;16.19;42.33
34506;BME280;20748;42.632;23.198;2023-02-23T11:37:21;91828.72;;;16.23;41.59
34506;BME280;20748;42.632;23.198;2023-02-23T11:39:55;91825.09;;;16.00;41.82
34506;BME280;20748;42.632;23.198;2023-02-23T11:42:28;91818.50;;;16.06;41.70
34506;BME280;20748;42.632;23.198;2023-02-23T11:45:17;91823.25;;;16.00;41.29
34506;BME280;20748;42.632;23.198;2023-02-23T11:47:53;91815.19;;;15.93;41.37
34506;BME280;20748;42.632;23.198;2023-02-23T11:50:28;91823.06;;;15.80;41.86
34506;BME280;20748;42.632;23.198;2023-02-23T11:53:03;91819.84;;;16.00;41.71
34506;BME280;20748;42.632;23.198;2023-02-23T11:55:37;91816.28;;;15.79;41.58
34506;BME280;20748;42.632;23.198;2023-02-23T11:58:17;91811.88;;;15.83;41.94
34506;BME280;20748;42.632;23.198;2023-02-23T12:00:55;91813.31;;;15.81;42.29
34506;BME280;20748;42.632;23.198;2023-02-23T12:03:30;91813.91;;;16.03;41.77
34506;BME280;20748;42.632;23.198;2023-02-23T12:06:04;91810.78;;;15.84;41.25
34506;BME280;20748;42.632;23.198;2023-02-23T12:08:40;91810.97;;;15.63;41.66
34506;BME280;20748;42.632;23.198;2023-02-23T12:11:17;91810.72;;;15.68;41.41
34506;BME280;20748;42.632;23.198;2023-02-23T12:13:56;91808.47;;;15.54;41.37
34506;BME280;20748;42.632;23.198;2023-02-23T12:16:35;91803.44;;;15.49;42.20
34506;BME280;20748;42.632;23.198;2023-02-23T12:19:23;91805.19;;;15.45;41.98
34506;BME280;20748;42.632;23.198;2023-02-23T12:22:01;91802.38;;;15.38;42.36
34506;BME280;20748;42.632;23.198;2023-02-23T12:24:44;91804.53;;;15.07;42.59
34506;BME280;20748;42.632;23.198;2023-02-23T12:27:23;91808.13;;;15.02;42.47
34506;BME280;20748;42.632;23.198;2023-02-23T12:30:04;91800.03;;;15.08;42.62
34506;BME280;20748;42.632;23.198;2023-02-23T12:32:47;91797.97;;;15.01;42.92
34506;BME280;20748;42.632;23.198;2023-02-23T12:35:24;91802.53;;;15.04;42.65
34506;BME280;20748;42.632;23.198;2023-02-23T12:38:09;91796.53;;;14.91;42.38
34506;BME280;20748;42.632;23.198;2023-02-23T12:40:43;91802.66;;;14.95;42.80
34506;BME280;20748;42.632;23.198;2023-02-23T12:43:20;91804.19;;;14.96;42.37
34506;BME280;20748;42.632;23.198;2023-02-23T12:46:04;91803.88;;;14.98;42.78
34506;BME280;20748;42.632;23.198;2023-02-23T12:48:47;91795.78;;;14.90;43.32
34506;BME280;20748;42.632;23.198;2023-02-23T12:51:29;91796.75;;;14.98;42.94
34506;BME280;20748;42.632;23.198;2023-02-23T12:54:03;91794.22;;;15.02;42.80
34506;BME280;20748;42.632;23.198;2023-02-23T12:56:52;91786.91;;;14.95;42.69
34506;BME280;20748;42.632;23.198;2023-02-23T12:59:48;91783.06;;;15.05;42.42
34506;BME280;20748;42.632;23.198;2023-02-23T13:02:28;91785.78;;;14.71;42.99
34506;BME280;20748;42.632;23.198;2023-02-23T13:05:12;91787.75;;;14.62;43.73
34506;BME280;20748;42.632;23.198;2023-02-23T13:07:54;91785.47;;;14.60;43.57
34506;BME280;20748;42.632;23.198;2023-02-23T13:10:49;91787.09;;;14.53;43.91
34506;BME280;20748;42.632;23.198;2023-02-23T13:13:32;91795.97;;;14.60;42.72
34506;BME280;20748;42.632;23.198;2023-02-23T13:16:13;91789.94;;;14.60;43.08
34506;BME280;20748;42.632;23.198;2023-02-23T13:18:51;91790.50;;;14.66;42.83
34506;BME280;20748;42.632;23.198;2023-02-23T13:21:34;91788.84;;;14.61;43.42
34506;BME280;20748;42.632;23.198;2023-02-23T13:24:13;91771.78;;;14.67;43.16
34506;BME280;20748;42.632;23.198;2023-02-23T13:26:54;91785.25;;;14.66;43.18
34506;BME280;20748;42.632;23.198;2023-02-23T13:29:34;91774.84;;;14.69;43.42
34506;BME280;20748;42.632;23.198;2023-02-23T13:32:10;91778.34;;;14.86;43.83
34506;BME280;20748;42.632;23.198;2023-02-23T13:34:48;91782.44;;;14.83;43.19
34506;BME280;20748;42.632;23.198;2023-02-23T13:37:26;91771.34;;;14.65;43.28
34506;BME280;20748;42.632;23.198;2023-02-23T13:40:13;91772.78;;;14.62;43.36
34506;BME280;20748;42.632;23.198;2023-02-23T13:42:58;91779.97;;;14.41;44.76
34506;BME280;20748;42.632;23.198;2023-02-23T13:45:46;91776.91;;;14.51;44.20
34506;BME280;20748;42.632;23.198;2023-02-23T13:48:37;91784.25;;;14.58;43.94
34506;BME280;20748;42.632;23.198;2023-02-23T13:51:33;91782.50;;;14.49;44.19
34506;BME280;20748;42.632;23.198;2023-02-23T13:54:24;91782.94;;;14.39;45.03
34506;BME280;20748;42.632;23.198;2023-02-23T13:57:03;91782.16;;;14.39;45.24
34506;BME280;20748;42.632;23.198;2023-02-23T13:59:39;91779.84;;;14.25;45.05